Oreana, Idaho
Current Conditions -  °F | °C
As of 9:15 AM on Thursday 29 Jan 2015 (Local Time) from KMAN Reporting Station
Overcast Overcast  
Wind Chill: 32°   Ceiling: 3800
Heat Index: 37°   Visibility: 10mi
Dew Point: 37°   Wind: 7mph
Humidity: 100%   Direction: 120°ESE
Pressure: 30.44"   Gusts: NA
Location:  42.9915°N, 116.705°W
Report Text: KMAN 291615Z AUTO 12006KT 10SM OVC038 03/03 A3044 RMK AO1
Loading
Personal Weather Stations






























Interactive Weather Map New forecast layout! Learn more

10-Day Weather Forecast

Advertisements
Track Severe Weather on mobile